Time;durP1;ratioP1;P1;durP2;ratioP2;P2;SDS_P1;SDS_P2;PMS_P1;PMS_P2;Temp;Humidity;BMP_temperature;BMP_pressure;BME280_temperature;BME280_humidity;BME280_pressure;Samples;Min_cycle;Max_cycle;Signal;HPM_P1;HPM_P2
2022/11/15 00:01:47;;;;;;;25.38;14.15;;;;;;;7.86;87.95;100784.88;5014237;28;20046;-71
2022/11/15 00:04:33;;;;;;;25.23;15.57;;;;;;;7.89;88.13;100784.81;5015644;28;20074;-69
2022/11/15 00:07:19;;;;;;;33.55;15.55;;;;;;;7.93;88.01;100785.59;5014881;28;20054;-69
2022/11/15 00:10:27;;;;;;;23.58;15.30;;;;;;;7.94;88.24;100774.22;5010438;28;20158;-70
2022/11/15 00:13:13;;;;;;;30.20;15.02;;;;;;;7.96;88.44;100771.56;5013584;28;20137;-70
2022/11/15 00:16:01;;;;;;;28.05;15.45;;;;;;;7.99;88.71;100772.34;5014552;28;20050;-70
2022/11/15 00:18:46;;;;;;;27.92;14.98;;;;;;;8.01;88.93;100772.34;5011408;28;20054;-70
2022/11/15 00:21:35;;;;;;;30.83;16.17;;;;;;;8.05;89.23;100766.09;5014280;28;20052;-70
2022/11/15 00:24:21;;;;;;;29.77;15.95;;;;;;;8.07;89.22;100770.44;5015289;28;20539;-70
2022/11/15 00:27:08;;;;;;;26.88;15.88;;;;;;;8.12;89.34;100770.34;5015444;28;20197;-69
2022/11/15 00:29:54;;;;;;;28.48;15.32;;;;;;;8.14;89.49;100763.28;5016145;28;20038;-70
2022/11/15 00:32:41;;;;;;;23.73;14.65;;;;;;;8.17;89.43;100765.84;5013807;28;20165;-70
2022/11/15 00:35:26;;;;;;;26.92;15.32;;;;;;;8.18;89.64;100753.59;5011307;28;20444;-70
2022/11/15 00:38:12;;;;;;;26.52;15.20;;;;;;;8.20;89.71;100764.91;5010508;28;20053;-70
2022/11/15 00:40:58;;;;;;;26.20;15.18;;;;;;;8.22;89.80;100755.25;5012852;28;20540;-70
2022/11/15 00:43:45;;;;;;;35.05;17.13;;;;;;;8.24;90.04;100758.72;5010628;28;20147;-70
2022/11/15 00:46:30;;;;;;;31.30;16.00;;;;;;;8.27;90.12;100760.41;5013304;28;20491;-72
2022/11/15 00:49:16;;;;;;;26.90;15.55;;;;;;;8.28;90.31;100752.50;5008926;28;20584;-72
2022/11/15 00:52:02;;;;;;;28.38;15.95;;;;;;;8.29;90.49;100738.44;5008885;28;20565;-72
2022/11/15 00:54:47;;;;;;;24.92;15.45;;;;;;;8.30;90.66;100734.91;5008108;28;20042;-72
2022/11/15 00:57:33;;;;;;;26.42;15.82;;;;;;;8.31;90.65;100741.91;5012310;28;20046;-72
2022/11/15 01:00:19;;;;;;;24.80;14.82;;;;;;;8.32;90.85;100733.13;5011879;28;20039;-72
2022/11/15 01:03:04;;;;;;;25.75;15.27;;;;;;;8.35;90.63;100740.06;5009368;28;20574;-72
2022/11/15 01:05:50;;;;;;;26.08;15.60;;;;;;;8.38;90.85;100740.00;5011454;28;20042;-73
2022/11/15 01:08:36;;;;;;;22.90;13.75;;;;;;;8.40;90.83;100735.59;5009885;28;20053;-72
2022/11/15 01:11:21;;;;;;;23.05;13.77;;;;;;;8.39;90.82;100728.59;5009813;28;20050;-73
2022/11/15 01:14:07;;;;;;;22.42;12.98;;;;;;;8.40;90.80;100739.06;5006809;28;20050;-73
2022/11/15 01:16:55;;;;;;;38.35;17.73;;;;;;;8.41;90.66;100734.69;5007788;28;20105;-72
2022/11/15 01:19:40;;;;;;;27.48;15.85;;;;;;;8.40;90.89;100730.34;5009473;28;20046;-73
2022/11/15 01:22:26;;;;;;;25.98;15.10;;;;;;;8.40;91.11;100720.69;5009997;28;20042;-73
2022/11/15 01:25:12;;;;;;;22.85;13.43;;;;;;;8.43;90.95;100725.03;5009650;28;20065;-70
2022/11/15 01:27:58;;;;;;;25.10;14.18;;;;;;;8.45;91.09;100719.72;5010962;28;20141;-70
2022/11/15 01:30:43;;;;;;;24.65;15.55;;;;;;;8.47;91.26;100724.06;5001499;28;20050;-70
2022/11/15 01:33:30;;;;;;;21.35;13.25;;;;;;;8.51;91.37;100719.59;5008647;28;20046;-70
2022/11/15 01:36:24;;;;;;;26.17;14.82;;;;;;;8.52;91.58;100716.06;4998998;28;20046;-71
2022/11/15 01:39:09;;;;;;;23.85;14.48;;;;;;;8.57;91.54;100715.97;5004197;28;20062;-71
2022/11/15 01:41:55;;;;;;;23.13;14.63;;;;;;;8.60;91.62;100705.38;5008197;28;20093;-71
2022/11/15 01:44:51;;;;;;;26.85;15.18;;;;;;;8.60;91.72;100690.47;5011364;28;20049;-71
2022/11/15 01:47:50;;;;;;;22.35;13.90;;;;;;;8.64;91.76;100704.44;5009292;28;20046;-70
2022/11/15 01:50:36;;;;;;;30.83;16.52;;;;;;;8.65;91.91;100699.13;5008778;28;20053;-70
2022/11/15 01:53:24;;;;;;;27.95;16.00;;;;;;;8.68;91.97;100700.81;5011254;28;20035;-70
2022/11/15 01:56:17;;;;;;;25.02;15.13;;;;;;;8.72;91.99;100698.97;5010206;28;20125;-71
2022/11/15 01:59:07;;;;;;;29.20;17.52;;;;;;;8.76;91.74;100703.25;5010315;28;20074;-70
2022/11/15 02:01:53;;;;;;;28.83;15.63;;;;;;;8.79;91.87;100703.19;5006357;28;20082;-70
2022/11/15 02:04:47;;;;;;;29.00;17.67;;;;;;;8.82;91.81;100695.19;5010821;28;20132;-70
2022/11/15 02:07:35;;;;;;;29.85;17.15;;;;;;;8.84;92.17;100696.03;5003031;28;20086;-71
2022/11/15 02:10:24;;;;;;;27.20;16.63;;;;;;;8.88;92.01;100689.81;5008759;28;20050;-71
2022/11/15 02:13:10;;;;;;;29.08;16.52;;;;;;;8.89;92.03;100690.66;5008610;28;20125;-71
2022/11/15 02:16:04;;;;;;;27.50;14.50;;;;;;;8.89;92.37;100688.91;5008722;28;20059;-71
2022/11/15 02:19:09;;;;;;;23.77;14.65;;;;;;;8.92;92.33;100687.94;5009964;28;20128;-71
2022/11/15 02:22:32;;;;;;;22.27;13.90;;;;;;;8.94;92.46;100678.25;5004051;28;20050;-71
2022/11/15 02:25:46;;;;;;;23.02;15.05;;;;;;;8.97;92.47;100686.94;5006705;28;20050;-71
2022/11/15 02:29:04;;;;;;;22.13;13.93;;;;;;;9.00;92.58;100678.94;5000175;28;20042;-70
2022/11/15 02:32:20;;;;;;;25.33;14.73;;;;;;;9.05;92.67;100686.75;5004644;28;20420;-71
2022/11/15 02:35:58;;;;;;;21.23;12.77;;;;;;;9.08;92.90;100686.63;5003365;28;20554;-71
2022/11/15 02:39:00;;;;;;;20.42;13.63;;;;;;;9.13;93.14;100678.63;5006144;28;20056;-71
2022/11/15 02:41:57;;;;;;;21.10;13.63;;;;;;;9.13;93.33;100676.00;5008899;28;20147;-72
2022/11/15 02:44:46;;;;;;;20.35;13.23;;;;;;;9.16;93.38;100673.28;5009737;28;20038;-72
2022/11/15 02:47:41;;;;;;;24.95;13.63;;;;;;;9.18;93.48;100671.47;5009667;28;20046;-72
2022/11/15 02:50:31;;;;;;;19.92;13.48;;;;;;;9.19;93.90;100670.59;5005905;28;20038;-71
2022/11/15 02:53:24;;;;;;;20.40;13.23;;;;;;;9.23;93.72;100664.31;5002384;28;20049;-71
2022/11/15 02:56:12;;;;;;;24.77;13.93;;;;;;;9.26;93.75;100671.28;5008489;28;20137;-71
2022/11/15 02:59:18;;;;;;;22.48;13.63;;;;;;;9.31;93.94;100664.13;5008671;28;20050;-71
2022/11/15 03:02:33;;;;;;;20.52;13.77;;;;;;;9.33;94.01;100660.53;5007309;28;20125;-71
2022/11/15 03:06:03;;;;;;;21.75;13.27;;;;;;;9.36;94.24;100659.56;5004435;28;20532;-71
2022/11/15 03:09:04;;;;;;;21.80;13.55;;;;;;;9.38;94.32;100654.28;5006543;28;20550;-71
2022/11/15 03:12:21;;;;;;;19.23;12.73;;;;;;;9.42;94.19;100655.91;5009203;28;20084;-71
2022/11/15 03:15:21;;;;;;;21.45;12.98;;;;;;;9.45;94.48;100653.19;5007246;28;20267;-71
2022/11/15 03:18:29;;;;;;;23.23;13.60;;;;;;;9.45;94.57;100646.19;5009465;28;20065;-72
2022/11/15 03:21:20;;;;;;;23.08;13.43;;;;;;;9.46;94.27;100642.63;5005067;28;20166;-71
2022/11/15 03:24:08;;;;;;;21.02;13.68;;;;;;;9.52;94.39;100648.63;5000279;28;20074;-71
2022/11/15 03:26:58;;;;;;;24.05;13.45;;;;;;;9.52;94.51;100640.72;5003627;28;20054;-71
2022/11/15 03:29:52;;;;;;;19.70;12.60;;;;;;;9.53;94.42;100642.47;4993553;28;20129;-71
2022/11/15 03:32:59;;;;;;;20.00;12.95;;;;;;;9.52;94.45;100636.31;5006533;28;20074;-70
2022/11/15 03:35:47;;;;;;;19.40;13.15;;;;;;;9.52;94.42;100641.56;5001519;28;20065;-70
2022/11/15 03:38:35;;;;;;;21.33;13.10;;;;;;;9.53;94.62;100648.56;5005661;28;20054;-70
2022/11/15 03:42:16;;;;;;;22.40;12.73;;;;;;;9.52;94.42;100636.31;5007947;28;20058;-71
2022/11/15 03:45:20;;;;;;;21.08;13.45;;;;;;;9.48;94.37;100637.31;5005316;28;20109;-71
2022/11/15 03:48:16;;;;;;;18.20;12.52;;;;;;;9.46;94.31;100639.97;4992969;28;20054;-72
2022/11/15 03:51:04;;;;;;;19.42;12.13;;;;;;;9.46;94.42;100647.03;4999818;28;20065;-71
2022/11/15 03:53:50;;;;;;;20.15;12.43;;;;;;;9.47;94.51;100646.97;5007262;28;20120;-71
2022/11/15 03:56:39;;;;;;;18.33;12.55;;;;;;;9.51;94.57;100652.16;5008270;28;20058;-71
2022/11/15 03:59:24;;;;;;;21.00;12.90;;;;;;;9.53;94.52;100653.84;5009272;28;20088;-71
2022/11/15 04:02:13;;;;;;;20.48;12.57;;;;;;;9.56;94.45;100655.53;5006192;28;20043;-71
2022/11/15 04:04:59;;;;;;;20.40;12.82;;;;;;;9.59;94.63;100652.78;5008366;28;20049;-70
2022/11/15 04:07:44;;;;;;;26.73;13.45;;;;;;;9.64;94.81;100661.44;5005910;28;20054;-71
2022/11/15 04:10:31;;;;;;;22.23;12.68;;;;;;;9.69;94.99;100656.03;4994916;28;20057;-70
2022/11/15 04:13:16;;;;;;;23.15;13.18;;;;;;;9.74;94.99;100657.63;5011248;28;20098;-70
2022/11/15 04:16:03;;;;;;;21.60;13.35;;;;;;;9.79;94.77;100657.47;4999336;28;20043;-70
2022/11/15 04:24:11;;;;;;;22.05;14.00;;;;;;;9.83;94.91;100658.25;5010995;28;20054;-72
2022/11/15 04:24:59;;;;;;;22.95;13.77;;;;;;;9.90;95.03;100655.38;5009426;28;20046;-70
2022/11/15 04:27:45;;;;;;;21.00;13.20;;;;;;;9.92;94.87;100653.53;5007513;28;20054;-70
2022/11/15 04:30:31;;;;;;;20.92;13.38;;;;;;;9.94;95.02;100654.38;4993529;28;20049;-70
2022/11/15 04:33:16;;;;;;;21.67;13.27;;;;;;;9.96;94.83;100656.97;5007216;28;20050;-70
2022/11/15 04:39:07;;;;;;;23.10;13.30;;;;;;;10.00;94.87;100649.84;4999512;28;20093;-70
2022/11/15 04:41:53;;;;;;;21.60;13.02;;;;;;;10.02;95.00;100654.13;5011322;28;20046;-70
2022/11/15 04:44:40;;;;;;;19.90;12.48;;;;;;;10.05;94.96;100651.44;5012204;28;20043;-70
2022/11/15 04:47:27;;;;;;;19.95;12.48;;;;;;;10.09;94.91;100663.56;5010409;28;20136;-70
2022/11/15 04:50:14;;;;;;;16.55;12.23;;;;;;;10.10;94.79;100653.91;5010527;28;20042;-71
2022/11/15 04:53:00;;;;;;;22.42;12.70;;;;;;;10.14;94.87;100646.78;5011194;28;20049;-70
2022/11/15 04:55:46;;;;;;;19.75;12.43;;;;;;;10.17;94.81;100649.31;5011457;28;20141;-71
2022/11/15 04:58:32;;;;;;;19.48;12.63;;;;;;;10.20;94.70;100649.19;5011939;28;20043;-71
2022/11/15 05:01:18;;;;;;;20.67;11.65;;;;;;;10.21;94.85;100638.63;5011092;28;20044;-71
2022/11/15 05:04:18;;;;;;;18.25;12.00;;;;;;;10.25;94.77;100639.38;5008261;28;20074;-70
2022/11/15 05:07:04;;;;;;;19.52;11.77;;;;;;;10.29;94.74;100637.50;5011401;28;20052;-70
2022/11/15 05:09:50;;;;;;;19.33;11.70;;;;;;;10.30;94.56;100640.09;5010945;28;20592;-71
2022/11/15 05:12:35;;;;;;;20.52;12.10;;;;;;;10.30;94.66;100634.81;4994901;28;20065;-71
2022/11/15 05:15:23;;;;;;;19.80;12.20;;;;;;;10.30;94.67;100634.81;5010418;28;20117;-71
2022/11/15 05:18:09;;;;;;;26.45;11.73;;;;;;;10.31;94.46;100640.97;5006534;28;20511;-71
2022/11/15 05:20:54;;;;;;;18.35;11.32;;;;;;;10.30;94.63;100644.50;5010037;28;20193;-71
2022/11/15 05:23:41;;;;;;;19.83;11.93;;;;;;;10.29;94.71;100635.72;5011353;28;20057;-71
2022/11/15 05:26:27;;;;;;;19.52;11.70;;;;;;;10.28;94.81;100634.00;5011137;28;20042;-71
2022/11/15 05:29:12;;;;;;;18.95;12.02;;;;;;;10.28;94.96;100641.06;5011588;28;20464;-71
2022/11/15 05:31:58;;;;;;;21.60;11.65;;;;;;;10.27;94.84;100637.56;5011754;28;20053;-71
2022/11/15 05:34:45;;;;;;;21.42;12.50;;;;;;;10.25;94.92;100636.75;5007753;28;20077;-71
2022/11/15 05:37:30;;;;;;;20.08;12.68;;;;;;;10.26;94.96;100638.47;5009548;28;20138;-71
2022/11/15 05:40:18;;;;;;;20.63;13.15;;;;;;;10.26;95.12;100635.84;5008089;28;20211;-71
2022/11/15 05:43:05;;;;;;;21.15;13.85;;;;;;;10.26;95.06;100628.78;5006600;28;20058;-70
2022/11/15 05:45:51;;;;;;;18.85;12.52;;;;;;;10.26;95.23;100631.44;5010653;28;20073;-70
2022/11/15 05:48:41;;;;;;;23.45;13.45;;;;;;;10.27;95.60;100640.22;5007556;28;20054;-69
2022/11/15 05:51:29;;;;;;;24.30;13.30;;;;;;;10.26;95.42;100636.69;5007186;28;20050;-69
2022/11/15 05:54:17;;;;;;;21.77;13.35;;;;;;;10.31;95.73;100636.53;5005066;28;20050;-70
2022/11/15 05:57:04;;;;;;;21.30;12.10;;;;;;;10.34;96.12;100635.56;5005257;28;20046;-69
2022/11/15 05:59:51;;;;;;;21.40;14.15;;;;;;;10.39;96.19;100628.44;5007573;28;20197;-70
2022/11/15 06:02:37;;;;;;;17.00;11.65;;;;;;;10.42;96.39;100630.97;5003884;28;20046;-70
2022/11/15 06:05:22;;;;;;;15.98;11.20;;;;;;;10.47;96.70;100642.22;5009866;28;20480;-70
2022/11/15 06:08:08;;;;;;;19.77;12.25;;;;;;;10.51;96.79;100638.56;5003119;28;20456;-70
2022/11/15 06:10:54;;;;;;;20.13;13.15;;;;;;;10.56;96.63;100638.41;5007590;28;20145;-71
2022/11/15 06:13:40;;;;;;;21.83;12.65;;;;;;;10.60;96.75;100641.81;5004861;28;20073;-71
2022/11/15 06:16:25;;;;;;;22.92;13.80;;;;;;;10.64;96.69;100636.38;5008957;28;20092;-70
2022/11/15 06:19:12;;;;;;;20.67;13.27;;;;;;;10.65;96.61;100643.38;5008071;28;20050;-70
2022/11/15 06:21:59;;;;;;;20.08;12.90;;;;;;;10.68;96.93;100640.63;5002460;28;20047;-71
2022/11/15 06:24:46;;;;;;;24.17;13.88;;;;;;;10.67;96.24;100641.56;5008164;28;20057;-71
2022/11/15 06:27:32;;;;;;;18.02;12.25;;;;;;;10.62;96.51;100632.94;4993650;28;20049;-71
2022/11/15 06:30:18;;;;;;;26.35;15.27;;;;;;;10.60;96.50;100626.00;5006438;28;20397;-72
2022/11/15 06:33:05;;;;;;;21.95;13.00;;;;;;;10.59;96.71;100635.66;5003389;28;20038;-70
2022/11/15 06:35:51;;;;;;;19.38;13.32;;;;;;;10.53;96.65;100626.19;5002118;28;20100;-71
2022/11/15 06:38:37;;;;;;;25.35;15.88;;;;;;;10.52;96.70;100629.75;5006085;28;20476;-71
2022/11/15 06:41:23;;;;;;;35.15;20.17;;;;;;;10.52;96.78;100629.75;5007455;28;20042;-71
2022/11/15 06:44:09;;;;;;;29.35;18.38;;;;;;;10.51;96.80;100635.94;5007476;28;20553;-69
2022/11/15 06:46:55;;;;;;;31.73;19.48;;;;;;;10.51;97.00;100638.56;5008312;28;20049;-69
2022/11/15 06:49:41;;;;;;;47.50;26.65;;;;;;;10.50;97.04;100647.38;5008765;28;20050;-69
2022/11/15 06:52:51;;;;;;;29.85;17.55;;;;;;;10.51;96.97;100656.16;5008220;28;20034;-69
2022/11/15 06:55:37;;;;;;;21.65;14.98;;;;;;;10.50;97.08;100660.56;5008688;28;20054;-70
2022/11/15 06:58:23;;;;;;;21.15;13.32;;;;;;;10.51;97.10;100664.06;5010821;28;20089;-70
2022/11/15 07:01:11;;;;;;;25.98;14.00;;;;;;;10.51;97.12;100666.69;5006877;28;20486;-70
2022/11/15 07:03:57;;;;;;;31.40;18.48;;;;;;;10.49;97.02;100668.50;5026178;28;20050;-70
2022/11/15 07:06:47;;;;;;;30.67;18.02;;;;;;;10.50;97.24;100667.59;5008645;28;20054;-70
2022/11/15 07:09:33;;;;;;;38.42;21.65;;;;;;;10.52;97.33;100676.31;5017160;28;20091;-70
2022/11/15 07:12:18;;;;;;;42.47;24.92;;;;;;;10.52;97.24;100671.06;5031043;28;20354;-69
2022/11/15 07:15:05;;;;;;;62.58;31.33;;;;;;;10.52;97.30;100676.31;4991548;28;20085;-70
2022/11/15 07:17:51;;;;;;;47.75;25.67;;;;;;;10.51;97.51;100680.75;4991737;28;20053;-70
2022/11/15 07:20:37;;;;;;;30.27;17.92;;;;;;;10.51;97.54;100675.47;5004232;28;20050;-70
2022/11/15 07:23:24;;;;;;;29.95;18.35;;;;;;;10.52;97.64;100679.84;5013843;28;20038;-69
2022/11/15 07:26:09;;;;;;;27.23;17.20;;;;;;;10.51;97.49;100683.38;5030660;28;20048;-69
2022/11/15 07:28:55;;;;;;;20.70;13.63;;;;;;;10.52;97.74;100684.22;5031110;28;20049;-69
2022/11/15 07:31:40;;;;;;;21.83;13.02;;;;;;;10.50;97.88;100681.66;5030853;28;20046;-69
2022/11/15 07:34:31;;;;;;;16.58;11.50;;;;;;;10.51;97.78;100682.50;5030552;28;20047;-69
2022/11/15 07:37:17;;;;;;;21.10;12.57;;;;;;;10.50;98.04;100693.94;5017747;28;20078;-70
2022/11/15 07:40:06;;;;;;;36.22;20.98;;;;;;;10.49;97.96;100695.75;5030842;28;20049;-69
2022/11/15 07:42:55;;;;;;;21.23;11.55;;;;;;;10.49;97.91;100693.09;5030923;28;20042;-69
2022/11/15 07:45:43;;;;;;;22.75;12.95;;;;;;;10.51;97.98;100690.41;5034337;28;20064;-69
2022/11/15 07:48:30;;;;;;;13.80;9.43;;;;;;;10.51;97.89;100703.59;5034258;28;20088;-70
2022/11/15 07:51:28;;;;;;;9.60;7.28;;;;;;;10.53;97.78;100697.34;5025979;28;20535;-69
2022/11/15 07:54:14;;;;;;;11.45;7.32;;;;;;;10.56;97.86;100688.50;5028038;28;20050;-69
2022/11/15 07:56:59;;;;;;;17.00;10.10;;;;;;;10.60;97.97;100692.75;5034071;28;20049;-69
2022/11/15 07:59:52;;;;;;;17.77;12.65;;;;;;;10.64;97.91;100694.38;5034284;28;20168;-69
2022/11/15 08:02:38;;;;;;;14.55;9.90;;;;;;;10.66;97.78;100684.66;5033960;28;20042;-70
2022/11/15 08:05:24;;;;;;;16.15;8.95;;;;;;;10.66;97.54;100696.94;5032768;28;20104;-70
2022/11/15 08:08:10;;;;;;;13.48;8.30;;;;;;;10.64;97.40;100701.41;5013133;28;20562;-70
2022/11/15 08:11:00;;;;;;;15.95;11.95;;;;;;;10.59;97.41;100695.44;5034180;28;20041;-70
2022/11/15 08:13:46;;;;;;;13.88;9.70;;;;;;;10.56;97.18;100691.13;5033054;28;20116;-70
2022/11/15 08:16:32;;;;;;;15.68;9.48;;;;;;;10.51;97.10;100693.94;5033457;28;20092;-70
2022/11/15 08:19:18;;;;;;;13.70;9.68;;;;;;;10.48;97.07;100693.16;5034056;28;20600;-71
2022/11/15 08:22:04;;;;;;;15.25;9.70;;;;;;;10.42;96.86;100699.50;5021355;28;20050;-71
2022/11/15 08:24:49;;;;;;;14.55;9.93;;;;;;;10.38;96.79;100705.75;4993079;28;20137;-70
2022/11/15 08:27:35;;;;;;;15.75;8.48;;;;;;;10.36;97.03;100703.16;4994168;28;20043;-71
2022/11/15 08:30:21;;;;;;;13.45;9.13;;;;;;;10.39;96.99;100696.94;4994076;28;20117;-71
2022/11/15 08:33:12;;;;;;;13.85;9.23;;;;;;;10.43;97.21;100693.28;4998566;28;20089;-71
2022/11/15 08:36:00;;;;;;;12.88;9.68;;;;;;;10.49;97.25;100692.22;5012735;28;20604;-71
2022/11/15 08:38:45;;;;;;;15.25;8.70;;;;;;;10.53;97.20;100688.59;5026005;28;20042;-71
2022/11/15 08:41:36;;;;;;;13.23;7.68;;;;;;;10.57;97.51;100690.22;5033164;28;20042;-71
2022/11/15 08:44:23;;;;;;;10.63;7.35;;;;;;;10.59;97.43;100691.00;5008799;28;20048;-70
2022/11/15 08:47:12;;;;;;;11.30;6.88;;;;;;;10.63;97.56;100695.28;5012929;28;20042;-71
2022/11/15 08:49:58;;;;;;;11.68;6.75;;;;;;;10.67;97.57;100694.28;5024463;28;20169;-71
2022/11/15 08:52:44;;;;;;;17.13;7.15;;;;;;;10.71;97.43;100689.78;5012834;28;20142;-71
2022/11/15 08:55:30;;;;;;;13.60;6.70;;;;;;;10.77;97.37;100693.97;5011797;28;20046;-71
2022/11/15 08:58:15;;;;;;;11.20;7.35;;;;;;;10.79;97.40;100698.28;5012218;28;20062;-71
2022/11/15 09:01:02;;;;;;;10.50;7.07;;;;;;;10.83;97.34;100692.00;5012709;28;20121;-71
2022/11/15 09:03:48;;;;;;;10.93;6.80;;;;;;;10.86;97.16;100686.59;5018030;28;20046;-71
2022/11/15 09:06:34;;;;;;;10.45;6.90;;;;;;;10.88;96.96;100679.50;5027770;28;20561;-71
2022/11/15 09:09:26;;;;;;;14.80;6.75;;;;;;;10.88;96.98;100694.47;5011877;28;20073;-71
2022/11/15 09:12:12;;;;;;;11.85;6.68;;;;;;;10.90;96.78;100689.16;5010988;28;20062;-71
2022/11/15 09:15:03;;;;;;;9.23;6.30;;;;;;;10.95;96.80;100677.53;5005665;28;20145;-71
2022/11/15 09:17:48;;;;;;;10.20;7.18;;;;;;;11.00;96.41;100662.38;5003229;28;20093;-71
2022/11/15 09:20:34;;;;;;;9.23;7.07;;;;;;;11.08;96.04;100675.31;5013276;28;20797;-71
2022/11/15 09:23:20;;;;;;;11.45;6.95;;;;;;;11.12;96.06;100663.75;5014732;28;20046;-71
2022/11/15 09:26:07;;;;;;;9.88;6.80;;;;;;;11.16;96.10;100659.22;5012020;28;20050;-71
2022/11/15 09:28:52;;;;;;;9.27;5.65;;;;;;;11.19;95.86;100664.41;5013046;28;20782;-71
2022/11/15 09:31:38;;;;;;;8.93;5.70;;;;;;;11.26;95.61;100657.09;5010882;28;20043;-71
2022/11/15 09:34:24;;;;;;;8.20;5.60;;;;;;;11.32;95.30;100652.47;5012809;28;20504;-71
2022/11/15 09:37:12;;;;;;;7.47;5.28;;;;;;;11.53;94.83;100649.09;5012316;28;20046;-71
2022/11/15 09:39:58;;;;;;;8.00;4.70;;;;;;;11.68;94.38;100645.03;5012475;28;20093;-71
2022/11/15 09:42:56;;;;;;;5.82;3.83;;;;;;;11.71;93.49;100631.69;5004170;28;20419;-71
2022/11/15 09:46:06;;;;;;;7.75;3.92;;;;;;;11.69;92.79;100637.03;5002917;28;20042;-71
2022/11/15 09:49:04;;;;;;;7.13;3.45;;;;;;;11.69;92.30;100629.13;5020067;28;20516;-71
2022/11/15 09:51:54;;;;;;;5.72;3.70;;;;;;;11.69;92.12;100631.75;5037099;28;20081;-72
2022/11/15 09:54:37;;;;;;;5.68;3.80;;;;;;;11.70;91.89;100625.56;5027947;28;20050;-71
2022/11/15 09:57:45;;;;;;;5.93;3.42;;;;;;;11.72;91.69;100623.72;5006300;28;20038;-71
2022/11/15 10:00:22;;;;;;;5.38;3.72;;;;;;;11.73;91.54;100630.72;5003862;28;20066;-71
2022/11/15 10:03:17;;;;;;;7.97;3.63;;;;;;;11.73;91.26;100620.16;5008444;28;20101;-71
2022/11/15 10:05:51;;;;;;;3.90;3.25;;;;;;;11.72;91.21;100614.91;5007653;28;20389;-71
2022/11/15 10:08:47;;;;;;;4.50;3.08;;;;;;;11.73;90.51;100612.25;5012689;28;20038;-71
2022/11/15 10:11:28;;;;;;;4.75;2.97;;;;;;;11.73;89.66;100609.59;4992297;28;20054;-71
2022/11/15 10:14:18;;;;;;;3.25;2.50;;;;;;;11.76;89.12;100611.25;4997731;28;20121;-71
2022/11/15 10:17:13;;;;;;;5.40;2.80;;;;;;;11.80;89.49;100607.59;5009557;28;20045;-71
2022/11/15 10:20:21;;;;;;;4.75;2.83;;;;;;;11.90;89.24;100610.72;5011653;28;20046;-71
2022/11/15 10:22:58;;;;;;;7.43;2.05;;;;;;;11.99;87.79;100618.31;5012021;28;20632;-72
2022/11/15 10:25:28;;;;;;;5.60;1.60;;;;;;;12.00;86.46;100609.47;5012108;28;20042;-71
2022/11/15 10:28:17;;;;;;;2.38;1.40;;;;;;;12.01;85.82;100605.00;5012108;28;20050;-71
2022/11/15 10:30:55;;;;;;;5.00;1.58;;;;;;;12.01;85.45;100605.00;5013653;28;20545;-71
2022/11/15 10:33:39;;;;;;;4.63;1.60;;;;;;;12.01;85.32;100597.97;5011516;28;20403;-71
2022/11/15 10:36:09;;;;;;;7.20;2.33;;;;;;;12.04;84.99;100594.34;5011905;28;20109;-71
2022/11/15 10:38:49;;;;;;;3.30;1.40;;;;;;;12.05;84.84;100594.28;5012023;28;20109;-71
2022/11/15 10:41:29;;;;;;;3.05;1.35;;;;;;;12.07;84.76;100586.28;5011894;28;20511;-71
2022/11/15 10:44:14;;;;;;;6.10;1.73;;;;;;;12.13;84.36;100577.25;5011377;28;20042;-71
2022/11/15 10:46:46;;;;;;;2.65;1.65;;;;;;;12.19;83.23;100574.34;5028619;28;20049;-71
2022/11/15 10:49:28;;;;;;;4.03;2.15;;;;;;;12.25;81.97;100564.38;5011588;28;20574;-72
2022/11/15 10:52:13;;;;;;;3.45;1.50;;;;;;;12.31;81.12;100565.91;5011557;28;20042;-71
2022/11/15 10:54:50;;;;;;;2.35;1.05;;;;;;;12.35;80.47;100569.28;5011324;28;20039;-71
2022/11/15 10:57:26;;;;;;;4.10;2.22;;;;;;;12.35;80.65;100567.53;5024989;28;20495;-72
2022/11/15 10:59:59;;;;;;;2.53;1.70;;;;;;;12.37;80.04;100562.16;5030256;28;20108;-71
2022/11/15 11:02:34;;;;;;;5.50;1.45;;;;;;;12.38;78.90;100564.72;5011469;28;20039;-71
2022/11/15 11:05:24;;;;;;;5.88;1.60;;;;;;;12.38;79.34;100569.16;5011785;28;20892;-71
2022/11/15 11:08:09;;;;;;;6.25;1.40;;;;;;;12.43;79.16;100561.88;5011320;28;20054;-71
2022/11/15 11:10:37;;;;;;;1.70;0.60;;;;;;;12.46;79.67;100553.00;5011109;28;20049;-72
2022/11/15 11:13:29;;;;;;;3.42;1.40;;;;;;;12.50;79.40;100558.09;4992075;28;20158;-72
2022/11/15 11:16:29;;;;;;;3.00;1.40;;;;;;;12.62;78.98;100550.53;4992704;28;20496;-72
2022/11/15 11:19:28;;;;;;;4.80;1.17;;;;;;;12.73;78.09;100551.78;4991700;28;20050;-71
2022/11/15 11:22:12;;;;;;;2.80;1.38;;;;;;;12.78;76.57;100556.00;4992207;28;20043;-72
2022/11/15 11:24:47;;;;;;;3.45;1.25;;;;;;;12.81;77.40;100548.81;4991634;28;20050;-72
2022/11/15 11:28:09;;;;;;;7.07;1.25;;;;;;;12.95;76.28;100547.31;5020342;28;20120;-71
2022/11/15 11:30:48;;;;;;;2.80;1.20;;;;;;;13.01;75.12;100545.25;5031260;28;20050;-72
2022/11/15 11:33:32;;;;;;;4.10;1.60;;;;;;;12.99;74.80;100552.41;5014200;28;20129;-72
2022/11/15 11:36:11;;;;;;;3.20;1.48;;;;;;;12.97;74.26;100541.03;5011573;28;20941;-72
2022/11/15 11:39:00;;;;;;;5.57;1.30;;;;;;;13.02;73.09;100539.03;5011053;28;20053;-72
2022/11/15 11:41:36;;;;;;;5.00;1.40;;;;;;;13.07;73.10;100546.78;5015371;28;20134;-72
2022/11/15 11:44:24;;;;;;;3.88;1.20;;;;;;;13.10;73.38;100535.19;5031045;28;20531;-72
2022/11/15 11:47:11;;;;;;;5.05;1.30;;;;;;;13.14;73.53;100532.31;5030695;28;20038;-72
2022/11/15 11:49:50;;;;;;;6.05;1.45;;;;;;;13.13;73.25;100522.66;5031139;28;20054;-72
2022/11/15 11:52:29;;;;;;;2.03;0.90;;;;;;;13.10;70.95;100506.06;5019981;28;20038;-71
2022/11/15 11:55:21;;;;;;;4.45;0.75;;;;;;;13.04;70.34;100501.91;5010785;28;20077;-72
2022/11/15 11:58:42;;;;;;;4.82;0.77;;;;;;;12.97;71.39;100501.34;5011208;28;20108;-72
2022/11/15 12:01:42;;;;;;;2.92;0.80;;;;;;;12.95;71.43;100489.97;5009283;28;20089;-72
2022/11/15 12:04:40;;;;;;;2.00;0.75;;;;;;;12.94;71.08;100480.31;5006646;28;20058;-72
2022/11/15 12:07:23;;;;;;;3.53;0.70;;;;;;;12.93;71.07;100483.91;5010795;28;20038;-72
2022/11/15 12:10:02;;;;;;;7.05;0.95;;;;;;;12.93;70.89;100478.59;5009268;28;20042;-72
2022/11/15 12:12:59;;;;;;;3.03;0.70;;;;;;;12.96;71.38;100470.53;4990798;28;20059;-72
2022/11/15 12:15:39;;;;;;;4.10;0.90;;;;;;;12.99;70.89;100472.19;4990576;28;20055;-72
2022/11/15 12:18:14;;;;;;;1.58;0.80;;;;;;;13.03;70.15;100464.03;4990920;28;20566;-72
2022/11/15 12:21:14;;;;;;;4.75;1.10;;;;;;;13.11;69.37;100457.50;4992515;28;20587;-72
2022/11/15 12:23:58;;;;;;;3.45;0.88;;;;;;;13.18;68.96;100451.84;5010767;28;20042;-71
2022/11/15 12:26:45;;;;;;;2.95;0.70;;;;;;;13.23;69.36;100448.16;5009341;28;20042;-72
2022/11/15 12:29:24;;;;;;;4.15;1.10;;;;;;;13.28;69.79;100435.53;5006106;28;20109;-72
2022/11/15 12:31:56;;;;;;;7.40;1.10;;;;;;;13.30;68.47;100437.16;5017310;28;20077;-72
2022/11/15 12:34:27;;;;;;;5.20;0.80;;;;;;;13.33;67.35;100430.84;5013047;28;20038;-72
2022/11/15 12:36:55;;;;;;;3.00;0.77;;;;;;;13.34;66.43;100412.28;5013659;28;20042;-71
2022/11/15 12:40:18;;;;;;;5.47;0.90;;;;;;;13.37;66.72;100411.25;5013973;28;20122;-72
2022/11/15 12:43:00;;;;;;;5.40;0.80;;;;;;;13.43;67.29;100410.13;5001724;28;20562;-72
2022/11/15 12:45:36;;;;;;;1.67;0.70;;;;;;;13.46;67.44;100405.53;5006314;28;20045;-72
2022/11/15 12:48:16;;;;;;;4.50;0.90;;;;;;;13.49;67.27;100402.75;5012090;28;20038;-72
2022/11/15 12:50:58;;;;;;;3.58;1.00;;;;;;;13.57;66.96;100412.09;5013418;28;20653;-73
2022/11/15 12:53:25;;;;;;;3.47;0.75;;;;;;;13.58;67.20;100401.41;5013418;28;20483;-72
2022/11/15 12:56:04;;;;;;;8.32;1.08;;;;;;;13.62;66.21;100383.59;5014567;28;20053;-72
2022/11/15 12:58:48;;;;;;;5.40;0.98;;;;;;;13.58;65.30;100385.53;5013283;28;20042;-72
2022/11/15 13:01:30;;;;;;;3.53;1.05;;;;;;;13.55;65.50;100376.88;5009427;28;20459;-71